Aviation Digital Data Service (ADDS)

Output produced by METARs form (1832 UTC 25 March 2019)
found at http://www.aviationweather.gov/metar/data/
 
Forecast for: TIST (ST THOMAS (KING), VI)
Text: TIST 251746Z 2518/2618 13013G19KT P6SM SCT030
Forecast period: 1800 to 2300 UTC 25 March 2019
Forecast type: FROM: standard forecast or significant change
Winds: from the SE (130 degrees) at 15 MPH (13 knots; 6.7 m/s)
gusting to 22 MPH (19 knots; 9.8 m/s)
Visibility: 6 or more miles 10+ km)
Ceiling: at least 12,000 feet AGL
Clouds: scattered clouds at 3000 feet AGL
Weather: no significant weather forecast for this period
Text: FM252300 09011KT P6SM FEW025
Forecast period: 2300 UTC 25 March 2019 to 1300 UTC 26 March 2019
Forecast type: FROM: standard forecast or significant change
Winds: from the E (90 degrees) at 13 MPH (11 knots; 5.7 m/s)
Visibility: 6 or more miles 10+ km)
Ceiling: at least 12,000 feet AGL
Clouds: few clouds at 2500 feet AGL
Weather: no significant weather forecast for this period
Text: FM261300 12012KT P6SM FEW030
Forecast period: 1300 to 1800 UTC 26 March 2019
Forecast type: FROM: standard forecast or significant change
Winds: from the ESE (120 degrees) at 14 MPH (12 knots; 6.2 m/s)
Visibility: 6 or more miles 10+ km)
Ceiling: at least 12,000 feet AGL
Clouds: few clouds at 3000 feet AGL
Weather: no significant weather forecast for this period